createdAt,value
2022-12-24T00:00:33.612Z,10.30
2022-12-24T00:03:37.547Z,10.20
2022-12-24T00:06:39.725Z,10.20
2022-12-24T00:09:41.895Z,10.20
2022-12-24T00:12:44.161Z,10.20
2022-12-24T00:15:46.475Z,10.30
2022-12-24T00:18:48.731Z,10.30
2022-12-24T00:21:51.043Z,10.20
2022-12-24T00:24:53.288Z,10.30
2022-12-24T00:27:55.401Z,10.30
2022-12-24T00:30:58.141Z,10.40
2022-12-24T00:34:00.340Z,10.40
2022-12-24T00:37:02.514Z,10.40
2022-12-24T00:40:05.886Z,10.40
2022-12-24T00:43:08.109Z,10.40
2022-12-24T00:46:10.272Z,10.40
2022-12-24T00:49:13.130Z,10.50
2022-12-24T00:52:15.276Z,10.60
2022-12-24T00:55:17.562Z,10.60
2022-12-24T00:58:19.682Z,10.60
2022-12-24T01:01:23.365Z,10.70
2022-12-24T01:04:44.311Z,10.70
2022-12-24T01:07:47.372Z,10.70
2022-12-24T01:10:49.581Z,10.60
2022-12-24T01:13:51.675Z,10.70
2022-12-24T01:16:53.822Z,10.70
2022-12-24T01:19:56.089Z,10.60
2022-12-24T01:22:58.229Z,10.70
2022-12-24T01:26:01.840Z,10.70
2022-12-24T01:29:03.931Z,10.70
2022-12-24T01:32:06.092Z,10.60
2022-12-24T01:35:09.785Z,10.60
2022-12-24T01:38:12.805Z,10.60
2022-12-24T01:41:38.484Z,10.50
2022-12-24T01:44:43.419Z,10.60
2022-12-24T01:47:45.556Z,10.40
2022-12-24T01:50:54.655Z,10.40
2022-12-24T01:54:01.945Z,10.40
2022-12-24T01:57:19.127Z,10.40
2022-12-24T02:00:23.003Z,10.30
2022-12-24T02:03:25.423Z,10.30
2022-12-24T02:06:27.739Z,10.30
2022-12-24T02:09:30.333Z,10.20
2022-12-24T02:12:35.661Z,10.10
2022-12-24T02:16:01.374Z,10.00
2022-12-24T02:19:40.872Z,10.00
2022-12-24T02:23:07.447Z,10.10
2022-12-24T02:26:41.951Z,10.20
2022-12-24T02:30:08.394Z,10.30
2022-12-24T02:33:13.441Z,10.30
2022-12-24T02:36:30.023Z,10.10
2022-12-24T02:39:44.495Z,10.10
2022-12-24T02:42:51.348Z,10.10
2022-12-24T02:46:01.161Z,9.90
2022-12-24T02:49:04.346Z,9.80
2022-12-24T02:52:06.519Z,9.80
2022-12-24T02:55:14.413Z,10.10
2022-12-24T02:58:44.556Z,10.20
2022-12-24T03:02:07.834Z,10.20
2022-12-24T03:05:30.987Z,10.20
2022-12-24T03:08:53.080Z,9.90
2022-12-24T03:12:05.011Z,9.70
2022-12-24T03:15:10.022Z,9.80
2022-12-24T03:18:15.449Z,9.70
2022-12-24T03:21:27.142Z,9.80
2022-12-24T03:24:29.278Z,9.60
2022-12-24T03:27:33.459Z,9.40
2022-12-24T03:30:39.108Z,9.20
2022-12-24T03:33:41.439Z,9.10
2022-12-24T03:36:44.067Z,9.10
2022-12-24T03:39:46.194Z,9.10
2022-12-24T03:42:48.480Z,9.20
2022-12-24T03:45:50.695Z,9.20
2022-12-24T03:48:52.879Z,9.30
2022-12-24T03:51:55.305Z,9.20
2022-12-24T03:54:57.395Z,9.20
2022-12-24T03:57:59.546Z,9.20
2022-12-24T04:01:02.339Z,9.20
2022-12-24T04:04:04.605Z,9.10
2022-12-24T04:07:06.964Z,9.00
2022-12-24T04:10:12.350Z,9.10
2022-12-24T04:13:16.475Z,9.20
2022-12-24T04:16:18.639Z,9.20
2022-12-24T04:19:21.090Z,9.00
2022-12-24T04:22:23.513Z,8.90
2022-12-24T04:25:25.567Z,8.70
2022-12-24T04:28:30.192Z,9.00
2022-12-24T04:31:32.744Z,9.20
2022-12-24T04:34:34.840Z,9.30
2022-12-24T04:37:36.936Z,9.30
2022-12-24T04:40:39.874Z,9.20
2022-12-24T04:43:42.323Z,9.10
2022-12-24T04:46:44.568Z,9.10
2022-12-24T04:49:46.806Z,9.20
2022-12-24T04:52:48.937Z,9.10
2022-12-24T04:55:50.964Z,9.00
2022-12-24T04:58:54.027Z,9.10
2022-12-24T05:01:56.294Z,9.20
2022-12-24T05:04:58.601Z,9.40
2022-12-24T05:08:00.785Z,9.30
2022-12-24T05:11:03.632Z,9.20
2022-12-24T05:14:05.838Z,9.20
2022-12-24T05:17:07.927Z,9.20
2022-12-24T05:20:11.819Z,9.10
2022-12-24T05:23:40.457Z,9.00
2022-12-24T05:26:55.913Z,9.20
2022-12-24T05:29:58.070Z,9.30
2022-12-24T05:33:00.309Z,9.10
2022-12-24T05:36:02.420Z,9.00
2022-12-24T05:39:11.589Z,8.90
2022-12-24T05:42:15.686Z,9.00
2022-12-24T05:45:17.826Z,9.10
2022-12-24T05:48:20.003Z,9.00
2022-12-24T05:51:23.143Z,8.80
2022-12-24T05:54:25.249Z,8.80
2022-12-24T05:57:27.611Z,8.70
2022-12-24T06:00:30.382Z,8.60
2022-12-24T06:03:33.475Z,8.50
2022-12-24T06:06:35.663Z,8.50
2022-12-24T06:09:37.826Z,8.50
2022-12-24T06:12:40.055Z,8.30
2022-12-24T06:15:42.142Z,8.10
2022-12-24T06:18:45.674Z,7.90
2022-12-24T06:21:47.981Z,7.80
2022-12-24T06:24:50.187Z,7.60
2022-12-24T06:27:52.300Z,7.70
2022-12-24T06:31:02.170Z,7.70
2022-12-24T06:34:04.991Z,7.60
2022-12-24T06:37:07.195Z,7.30
2022-12-24T06:40:10.047Z,7.10
2022-12-24T06:43:14.720Z,7.10
2022-12-24T06:46:18.201Z,7.00
2022-12-24T06:49:20.432Z,6.80
2022-12-24T06:52:22.560Z,6.80
2022-12-24T06:55:24.647Z,6.70
2022-12-24T06:58:26.777Z,6.70
2022-12-24T07:01:29.418Z,6.60
2022-12-24T07:04:31.828Z,6.50
2022-12-24T07:07:33.943Z,6.50
2022-12-24T07:10:40.087Z,6.60
2022-12-24T07:13:42.217Z,6.60
2022-12-24T07:16:44.399Z,6.60
2022-12-24T07:19:46.566Z,6.60
2022-12-24T07:22:48.644Z,6.50
2022-12-24T07:25:52.083Z,6.50
2022-12-24T07:28:54.223Z,6.50
2022-12-24T07:31:56.399Z,6.50
2022-12-24T07:34:58.678Z,6.60
2022-12-24T07:38:01.566Z,6.70
2022-12-24T07:41:03.912Z,6.70
2022-12-24T07:44:06.075Z,6.70
2022-12-24T07:47:08.332Z,6.90
2022-12-24T07:50:11.020Z,7.00
2022-12-24T07:53:13.269Z,7.30
2022-12-24T07:56:16.521Z,7.60
2022-12-24T07:59:18.775Z,7.60
2022-12-24T08:02:21.030Z,7.60
2022-12-24T08:05:23.502Z,7.50
2022-12-24T08:08:26.123Z,7.50
2022-12-24T08:11:28.405Z,7.50
2022-12-24T08:14:31.285Z,7.60
2022-12-24T08:17:33.418Z,7.50
2022-12-24T08:20:39.644Z,7.50
2022-12-24T08:23:41.797Z,7.60
2022-12-24T08:26:43.907Z,7.60
2022-12-24T08:29:45.973Z,7.60
2022-12-24T08:32:48.328Z,7.60
2022-12-24T08:35:52.795Z,7.70
2022-12-24T08:38:56.061Z,7.70
2022-12-24T08:41:58.306Z,7.70
2022-12-24T08:45:00.504Z,7.70
2022-12-24T08:48:02.626Z,7.70
2022-12-24T08:51:12.208Z,7.70
2022-12-24T08:54:14.390Z,7.70
2022-12-24T08:57:16.542Z,7.70
2022-12-24T09:00:19.391Z,7.70
2022-12-24T09:03:27.392Z,7.70
2022-12-24T09:06:31.451Z,7.60
2022-12-24T09:09:37.811Z,7.60
2022-12-24T09:12:40.395Z,7.60
2022-12-24T09:15:42.589Z,7.70
2022-12-24T09:18:44.914Z,7.70
2022-12-24T09:21:47.028Z,7.70
2022-12-24T09:24:49.166Z,7.70
2022-12-24T09:27:51.376Z,7.60
2022-12-24T09:30:58.592Z,7.70
2022-12-24T09:34:01.001Z,7.90
2022-12-24T09:37:23.551Z,7.70
2022-12-24T09:40:30.056Z,7.60
2022-12-24T09:43:34.146Z,7.60
2022-12-24T09:46:40.649Z,7.60
2022-12-24T09:49:47.898Z,7.70
2022-12-24T09:52:52.472Z,7.90
2022-12-24T09:55:58.476Z,8.00
2022-12-24T09:59:07.018Z,8.40
2022-12-24T10:02:17.373Z,8.30
2022-12-24T10:05:36.956Z,8.20
2022-12-24T10:09:03.297Z,8.20
2022-12-24T10:12:11.590Z,8.20
2022-12-24T10:15:35.472Z,8.40
2022-12-24T10:18:49.780Z,8.60
2022-12-24T10:22:29.505Z,8.60
2022-12-24T10:25:47.997Z,8.60
2022-12-24T10:29:06.639Z,8.60
2022-12-24T10:32:08.721Z,8.80
2022-12-24T10:35:16.828Z,8.90
2022-12-24T10:38:19.107Z,8.90
2022-12-24T10:41:21.427Z,9.20
2022-12-24T10:44:29.853Z,9.40
2022-12-24T10:47:36.948Z,9.50
2022-12-24T10:51:14.887Z,9.80
2022-12-24T10:54:26.296Z,10.00
2022-12-24T10:57:29.514Z,10.10
2022-12-24T11:00:36.294Z,10.10
2022-12-24T11:03:39.942Z,10.20
2022-12-24T11:07:03.285Z,10.30
2022-12-24T11:10:07.954Z,10.30
2022-12-24T11:13:38.448Z,10.40
2022-12-24T11:16:47.381Z,10.50
2022-12-24T11:19:50.893Z,10.50
2022-12-24T11:22:53.181Z,10.50
2022-12-24T11:25:57.167Z,10.60
2022-12-24T11:29:13.663Z,10.60
2022-12-24T11:32:24.927Z,10.70
2022-12-24T11:35:29.060Z,10.60
2022-12-24T11:38:33.425Z,10.70
2022-12-24T11:41:40.718Z,10.80
2022-12-24T11:44:49.579Z,10.80
2022-12-24T11:47:53.813Z,10.90
2022-12-24T11:51:01.408Z,10.80
2022-12-24T11:54:26.378Z,10.80
2022-12-24T11:57:38.459Z,10.80
2022-12-24T12:00:41.764Z,10.80
2022-12-24T12:03:48.626Z,10.80
2022-12-24T12:06:52.552Z,10.90
2022-12-24T12:10:25.943Z,10.90
2022-12-24T12:13:33.201Z,10.90
2022-12-24T12:17:05.216Z,11.00
2022-12-24T12:20:29.094Z,10.90
2022-12-24T12:23:36.629Z,10.90
2022-12-24T12:26:40.946Z,11.00
2022-12-24T12:29:49.609Z,11.00
2022-12-24T12:33:00.678Z,11.10
2022-12-24T12:36:03.810Z,11.20
2022-12-24T12:39:06.578Z,11.30
2022-12-24T12:42:35.411Z,11.40
2022-12-24T12:45:58.030Z,11.40
2022-12-24T12:49:02.721Z,11.50
2022-12-24T12:52:19.923Z,11.60
2022-12-24T12:55:46.628Z,11.80
2022-12-24T12:59:10.798Z,11.90
2022-12-24T13:02:36.210Z,12.10
2022-12-24T13:06:23.824Z,12.20
2022-12-24T13:09:46.948Z,12.30
2022-12-24T13:13:20.031Z,12.30
2022-12-24T13:16:50.167Z,12.20
2022-12-24T13:20:19.791Z,12.20
2022-12-24T13:23:25.046Z,12.00
2022-12-24T13:26:27.221Z,11.90
2022-12-24T13:29:33.418Z,12.00
2022-12-24T13:33:02.393Z,11.90
2022-12-24T13:36:14.181Z,11.90
2022-12-24T13:39:20.032Z,11.80
2022-12-24T13:42:48.112Z,11.80
2022-12-24T13:45:52.145Z,11.70
2022-12-24T13:48:54.391Z,11.60
2022-12-24T13:52:11.951Z,11.50
2022-12-24T13:55:16.225Z,11.30
2022-12-24T13:58:21.037Z,11.00
2022-12-24T14:01:35.217Z,10.90
2022-12-24T14:04:42.290Z,10.90
2022-12-24T14:07:50.397Z,10.90
2022-12-24T14:11:05.054Z,10.80
2022-12-24T14:14:07.107Z,10.80
2022-12-24T14:17:29.921Z,10.80
2022-12-24T14:20:33.591Z,10.80
2022-12-24T14:23:44.625Z,10.70
2022-12-24T14:26:57.485Z,10.50
2022-12-24T14:30:22.037Z,10.40
2022-12-24T14:33:35.467Z,10.30
2022-12-24T14:36:38.063Z,10.20
2022-12-24T14:39:44.793Z,10.30
2022-12-24T14:43:21.815Z,10.40
2022-12-24T14:47:01.743Z,10.40
2022-12-24T14:50:18.663Z,10.30
2022-12-24T14:53:42.932Z,10.00
2022-12-24T14:56:45.151Z,9.70
2022-12-24T14:59:57.138Z,9.50
2022-12-24T15:02:59.428Z,9.30
2022-12-24T15:06:06.876Z,9.10
2022-12-24T15:09:21.247Z,9.00
2022-12-24T15:12:25.012Z,8.80
2022-12-24T15:15:27.369Z,8.60
2022-12-24T15:18:35.465Z,8.50
2022-12-24T15:21:42.592Z,8.40
2022-12-24T15:24:47.503Z,8.20
2022-12-24T15:27:50.392Z,8.10
2022-12-24T15:31:08.239Z,8.00
2022-12-24T15:34:55.680Z,7.70
2022-12-24T15:38:02.220Z,7.50
2022-12-24T15:41:16.134Z,7.40
2022-12-24T15:44:20.281Z,7.30
2022-12-24T15:47:27.396Z,7.10
2022-12-24T15:50:35.671Z,6.80
2022-12-24T15:53:43.779Z,6.70
2022-12-24T15:56:47.219Z,6.50
2022-12-24T15:59:57.421Z,6.20
2022-12-24T16:03:20.536Z,6.10
2022-12-24T16:06:23.302Z,6.00
2022-12-24T16:09:41.683Z,5.80
2022-12-24T16:12:43.825Z,5.80
2022-12-24T16:15:58.426Z,5.70
2022-12-24T16:19:02.498Z,5.60
2022-12-24T16:22:24.708Z,5.50
2022-12-24T16:25:28.810Z,5.30
2022-12-24T16:28:32.163Z,5.20
2022-12-24T16:31:38.510Z,5.00
2022-12-24T16:34:40.709Z,4.90
2022-12-24T16:37:42.882Z,4.70
2022-12-24T16:40:46.686Z,4.60
2022-12-24T16:43:51.895Z,4.40
2022-12-24T16:46:55.181Z,4.30
2022-12-24T16:49:58.464Z,4.00
2022-12-24T16:53:00.582Z,3.80
2022-12-24T16:56:02.988Z,3.70
2022-12-24T16:59:05.144Z,3.70
2022-12-24T17:02:14.528Z,3.60
2022-12-24T17:05:17.673Z,3.40
2022-12-24T17:08:19.706Z,3.30
2022-12-24T17:11:24.040Z,3.20
2022-12-24T17:14:26.110Z,3.10
2022-12-24T17:17:29.760Z,3.10
2022-12-24T17:20:32.088Z,3.10
2022-12-24T17:23:34.169Z,3.10
2022-12-24T17:26:37.032Z,3.10
2022-12-24T17:29:39.412Z,3.00
2022-12-24T17:32:41.555Z,3.10
2022-12-24T17:35:44.066Z,3.10
2022-12-24T17:38:46.332Z,3.10
2022-12-24T17:41:49.433Z,2.90
2022-12-24T17:44:51.484Z,2.80
2022-12-24T17:47:53.651Z,2.60
2022-12-24T17:50:56.617Z,2.60
2022-12-24T17:53:59.171Z,2.60
2022-12-24T17:57:01.898Z,2.60
2022-12-24T18:00:05.101Z,2.40
2022-12-24T18:03:08.045Z,2.30
2022-12-24T18:06:11.555Z,2.20
2022-12-24T18:09:13.670Z,2.30
2022-12-24T18:12:15.813Z,2.20
2022-12-24T18:15:22.083Z,2.10
2022-12-24T18:18:24.199Z,2.10
2022-12-24T18:21:29.371Z,2.00
2022-12-24T18:24:31.587Z,2.00
2022-12-24T18:27:35.745Z,2.00
2022-12-24T18:30:37.974Z,1.90
2022-12-24T18:33:40.788Z,1.90
2022-12-24T18:36:42.985Z,1.90
2022-12-24T18:39:45.180Z,1.80
2022-12-24T18:42:47.570Z,1.90
2022-12-24T18:45:51.348Z,1.90
2022-12-24T18:48:55.350Z,1.90
2022-12-24T18:51:57.486Z,1.90
2022-12-24T18:54:59.543Z,1.80
2022-12-24T18:58:01.631Z,1.80
2022-12-24T19:01:32.039Z,1.80
2022-12-24T19:04:34.729Z,1.80
2022-12-24T19:07:37.002Z,1.70
2022-12-24T19:10:39.832Z,1.80
2022-12-24T19:13:44.885Z,1.70
2022-12-24T19:16:47.129Z,1.60
2022-12-24T19:19:51.362Z,1.50
2022-12-24T19:22:53.497Z,1.50
2022-12-24T19:25:55.606Z,1.40
2022-12-24T19:28:57.780Z,1.50
2022-12-24T19:32:00.065Z,1.60
2022-12-24T19:35:02.207Z,1.50
2022-12-24T19:38:04.550Z,1.40
2022-12-24T19:41:12.627Z,1.40
2022-12-24T19:44:14.712Z,1.30
2022-12-24T19:47:16.775Z,1.30
2022-12-24T19:50:20.244Z,1.30
2022-12-24T19:53:22.397Z,1.30
2022-12-24T19:56:26.605Z,1.40
2022-12-24T19:59:28.648Z,1.50
2022-12-24T20:02:30.910Z,1.40
2022-12-24T20:05:33.062Z,1.40
2022-12-24T20:08:36.016Z,1.40
2022-12-24T20:11:38.177Z,1.40
2022-12-24T20:14:40.287Z,1.40
2022-12-24T20:17:42.399Z,1.50
2022-12-24T20:20:44.631Z,1.40
2022-12-24T20:23:47.196Z,1.50
2022-12-24T20:26:49.330Z,1.40
2022-12-24T20:29:51.786Z,1.40
2022-12-24T20:32:55.443Z,1.40
2022-12-24T20:36:01.997Z,1.40
2022-12-24T20:39:05.605Z,1.30
2022-12-24T20:42:07.749Z,1.30
2022-12-24T20:45:10.038Z,1.30
2022-12-24T20:48:12.105Z,1.30
2022-12-24T20:51:24.288Z,1.40
2022-12-24T20:54:26.975Z,1.40
2022-12-24T20:57:35.938Z,1.50
2022-12-24T21:00:38.730Z,1.40
2022-12-24T21:03:40.968Z,1.50
2022-12-24T21:06:43.162Z,1.60
2022-12-24T21:09:45.430Z,1.60
2022-12-24T21:12:52.114Z,1.60
2022-12-24T21:15:54.322Z,1.70
2022-12-24T21:18:56.529Z,1.70
2022-12-24T21:21:58.674Z,1.70
2022-12-24T21:25:00.789Z,1.70
2022-12-24T21:28:02.916Z,1.60
2022-12-24T21:31:12.480Z,1.60
2022-12-24T21:34:14.980Z,1.60
2022-12-24T21:37:17.085Z,1.60
2022-12-24T21:40:19.667Z,1.70
2022-12-24T21:43:21.785Z,1.60
2022-12-24T21:46:25.796Z,1.70
2022-12-24T21:49:46.665Z,1.70
2022-12-24T21:53:08.706Z,1.70
2022-12-24T21:56:11.844Z,1.70
2022-12-24T21:59:13.992Z,1.70
2022-12-24T22:02:16.702Z,1.80
2022-12-24T22:05:19.109Z,1.80
2022-12-24T22:08:39.856Z,1.90
2022-12-24T22:11:53.953Z,1.90
2022-12-24T22:14:56.590Z,1.90
2022-12-24T22:17:58.862Z,1.90
2022-12-24T22:21:02.487Z,1.90
2022-12-24T22:24:05.102Z,2.00
2022-12-24T22:27:07.178Z,2.00
2022-12-24T22:30:10.082Z,2.10
2022-12-24T22:33:16.046Z,2.20
2022-12-24T22:36:18.108Z,2.10
2022-12-24T22:39:21.068Z,2.10
2022-12-24T22:42:23.181Z,2.10
2022-12-24T22:45:25.546Z,2.10
2022-12-24T22:48:27.693Z,2.00
2022-12-24T22:51:29.793Z,2.10
2022-12-24T22:54:32.304Z,2.10
2022-12-24T22:57:34.392Z,2.20
2022-12-24T23:00:44.529Z,2.20
2022-12-24T23:03:46.747Z,2.20
2022-12-24T23:06:49.082Z,2.20
2022-12-24T23:09:51.289Z,2.20
2022-12-24T23:13:15.114Z,2.20
2022-12-24T23:16:17.663Z,2.20
2022-12-24T23:19:19.915Z,2.30
2022-12-24T23:22:22.058Z,2.30
2022-12-24T23:25:24.419Z,2.30
2022-12-24T23:28:26.451Z,2.30
2022-12-24T23:31:28.809Z,2.30
2022-12-24T23:34:32.177Z,2.30
2022-12-24T23:37:35.274Z,2.30
2022-12-24T23:40:37.726Z,2.30
2022-12-24T23:43:39.918Z,2.30
2022-12-24T23:46:42.095Z,2.40
2022-12-24T23:49:44.229Z,2.40
2022-12-24T23:52:46.431Z,2.40
2022-12-24T23:55:48.571Z,2.40
2022-12-24T23:58:50.858Z,2.40
